Time;durP1;ratioP1;P1;durP2;ratioP2;P2;SDS_P1;SDS_P2;PMS_P1;PMS_P2;Temp;Humidity;BMP_temperature;BMP_pressure;BME280_temperature;BME280_humidity;BME280_pressure;Samples;Min_cycle;Max_cycle;Signal;HPM_P1;HPM_P2
2023/09/28 00:01:55;;;;;;;6.70;5.70;;;;;;;12.95;100.00;95085.00;4990939;28;20034;-88
2023/09/28 00:04:21;;;;;;;9.43;5.47;;;;;;;12.90;100.00;95085.56;4991440;28;20089;-88
2023/09/28 00:06:46;;;;;;;9.68;5.65;;;;;;;12.88;100.00;95092.72;4990349;28;20088;-87
2023/09/28 00:09:11;;;;;;;7.15;5.47;;;;;;;12.83;100.00;95083.84;4991180;28;20034;-89
2023/09/28 00:11:37;;;;;;;8.15;6.18;;;;;;;12.69;100.00;95088.06;4990195;28;20038;-87
2023/09/28 00:17:10;;;;;;;8.93;5.90;;;;;;;12.67;100.00;95083.06;5012737;23;20128;-90
2023/09/28 00:19:35;;;;;;;7.07;6.32;;;;;;;12.62;100.00;95089.78;4973414;28;20023;-87
2023/09/28 00:22:01;;;;;;;9.07;6.55;;;;;;;12.73;100.00;95089.34;4990485;28;20843;-87
2023/09/28 00:24:26;;;;;;;9.02;6.22;;;;;;;12.69;100.00;95086.28;4990736;28;20034;-86
2023/09/28 00:26:52;;;;;;;12.23;6.30;;;;;;;12.54;100.00;95077.69;4991502;28;20113;-87
2023/09/28 00:29:18;;;;;;;9.75;6.75;;;;;;;12.56;100.00;95090.50;4992744;28;20030;-89
2023/09/28 00:31:44;;;;;;;9.98;6.85;;;;;;;12.48;100.00;95095.78;4995250;28;20463;-88
2023/09/28 00:34:10;;;;;;;14.85;6.50;;;;;;;12.40;100.00;95108.84;5237610;23;20089;-84
2023/09/28 00:36:35;;;;;;;7.95;6.35;;;;;;;12.36;100.00;95121.38;5772323;23;20017;-85
2023/09/28 00:39:00;;;;;;;12.23;6.72;;;;;;;12.46;100.00;95131.50;4994891;28;20049;-84
2023/09/28 00:49:47;;;;;;;11.80;6.47;;;;;;;12.47;100.00;95135.72;5251914;23;20058;-87
2023/09/28 00:54:57;;;;;;;15.32;7.10;;;;;;;12.47;100.00;95107.97;5113374;23;20086;-88
2023/09/28 00:57:41;;;;;;;12.93;6.95;;;;;;;12.49;100.00;95118.19;4973510;28;20084;-88
2023/09/28 01:13:44;;;;;;;10.93;6.68;;;;;;;11.93;100.00;95154.06;5990798;23;20014;-83
2023/09/28 01:16:10;;;;;;;10.73;7.25;;;;;;;11.94;100.00;95155.69;5010847;28;20062;-82
2023/09/28 01:21:10;;;;;;;11.02;7.20;;;;;;;11.96;100.00;95147.72;6015561;23;20009;-84
2023/09/28 01:23:36;;;;;;;10.88;7.45;;;;;;;12.08;100.00;95143.72;4992255;28;20038;-89
2023/09/28 01:26:02;;;;;;;13.32;6.93;;;;;;;11.90;100.00;95153.59;4974664;28;20037;-85
2023/09/28 01:28:28;;;;;;;11.43;7.43;;;;;;;11.85;100.00;95161.88;4983553;28;20030;-83
2023/09/28 01:30:53;;;;;;;14.20;7.50;;;;;;;11.99;100.00;95165.53;4997086;28;20034;-86
2023/09/28 01:33:19;;;;;;;10.50;7.18;;;;;;;11.83;100.00;95179.44;4975736;28;20018;-84
2023/09/28 01:43:29;;;;;;;12.10;7.38;;;;;;;11.72;100.00;95187.59;6001197;23;20024;-87
2023/09/28 01:45:55;;;;;;;10.40;7.00;;;;;;;11.61;100.00;95182.78;4965209;28;20058;-86
2023/09/28 01:58:41;;;;;;;8.35;6.93;;;;;;;11.50;100.00;95194.34;5990310;23;20057;-86
2023/09/28 02:01:07;;;;;;;8.77;7.80;;;;;;;11.56;100.00;95192.84;4992819;28;20038;-89
2023/09/28 02:03:32;;;;;;;7.65;6.53;;;;;;;11.46;100.00;95184.50;4981369;28;20037;-85
2023/09/28 02:18:59;;;;;;;11.55;7.75;;;;;;;11.38;100.00;95215.66;5968366;23;19928;-80
2023/09/28 03:38:41;;;;;;;8.60;7.72;;;;;;;11.07;100.00;95257.91;5637875;23;20057;-83
2023/09/28 04:45:47;;;;;;;13.23;7.43;;;;;;;11.11;100.00;95277.31;5930586;23;20057;-82
2023/09/28 05:06:30;;;;;;;14.43;7.47;;;;;;;11.72;100.00;95296.56;5522698;23;20067;-85
2023/09/28 05:08:56;;;;;;;15.57;8.70;;;;;;;11.80;100.00;95280.16;4914797;29;20216;-87
2023/09/28 05:11:21;;;;;;;19.75;8.95;;;;;;;11.99;100.00;95282.34;4914388;29;20400;-84
2023/09/28 05:13:47;;;;;;;13.50;9.70;;;;;;;12.15;100.00;95270.06;4912607;29;20413;-87
2023/09/28 05:16:13;;;;;;;10.80;7.40;;;;;;;12.15;100.00;95267.47;4914101;29;20489;-86
2023/09/28 05:18:57;;;;;;;10.85;8.00;;;;;;;12.24;100.00;95270.00;4912787;29;20024;-85
2023/09/28 05:21:42;;;;;;;8.80;7.47;;;;;;;12.25;100.00;95277.63;4932482;29;20036;-85
2023/09/28 05:27:17;;;;;;;12.00;6.13;;;;;;;12.65;100.00;95258.31;5020904;23;20047;-87
2023/09/28 05:29:43;;;;;;;13.88;6.57;;;;;;;12.65;100.00;95246.13;4913542;29;20119;-87
2023/09/28 05:32:09;;;;;;;15.95;6.53;;;;;;;12.88;100.00;95259.09;4913046;29;20119;-85
2023/09/28 05:34:35;;;;;;;11.57;5.63;;;;;;;13.10;100.00;95247.84;4930698;29;20031;-86
2023/09/28 05:37:00;;;;;;;16.70;6.75;;;;;;;13.26;100.00;95240.88;4912185;29;20036;-86
2023/09/28 05:39:25;;;;;;;13.73;6.45;;;;;;;13.33;100.00;95239.13;4931008;29;20140;-87
2023/09/28 05:41:51;;;;;;;10.35;6.45;;;;;;;13.46;100.00;95229.72;4911852;29;20038;-85
2023/09/28 05:44:16;;;;;;;13.07;6.03;;;;;;;13.53;100.00;95235.81;4930426;29;20058;-87
2023/09/28 05:49:30;;;;;;;14.80;6.00;;;;;;;13.80;100.00;95226.53;4929749;29;20035;-85
2023/09/28 05:54:58;;;;;;;15.10;6.55;;;;;;;14.07;100.00;95214.56;4928963;29;20047;-87
2023/09/28 05:57:23;;;;;;;7.88;5.93;;;;;;;14.27;100.00;95231.22;4913685;29;20027;-85
2023/09/28 05:59:51;;;;;;;10.85;6.25;;;;;;;14.33;100.00;95232.25;4912718;29;20047;-86
2023/09/28 06:02:17;;;;;;;9.90;6.53;;;;;;;14.42;100.00;95233.75;4912177;29;20027;-85
2023/09/28 06:04:44;;;;;;;9.18;6.40;;;;;;;14.48;100.00;95233.03;4897920;29;20048;-86
2023/09/28 06:07:12;;;;;;;9.85;6.13;;;;;;;14.77;100.00;95222.41;4928611;29;20026;-85
2023/09/28 06:09:56;;;;;;;15.00;5.63;;;;;;;14.99;100.00;95221.41;4930671;29;20062;-86
2023/09/28 06:12:21;;;;;;;14.15;5.70;;;;;;;15.57;100.00;95183.56;4928733;29;20027;-85
2023/09/28 06:15:05;;;;;;;7.25;5.45;;;;;;;16.82;100.00;95147.13;4930101;29;20038;-83
2023/09/28 06:17:31;;;;;;;10.88;4.45;;;;;;;20.86;100.00;95080.56;4930100;29;20409;-82
2023/09/28 06:19:56;;;;;;;11.68;4.50;;;;;;;18.59;100.00;95083.28;4895979;29;20016;-82
2023/09/28 06:22:22;;;;;;;13.77;4.80;;;;;;;19.11;100.00;95094.25;4913336;29;20028;-83
2023/09/28 06:24:48;;;;;;;14.07;4.18;;;;;;;22.04;96.43;95065.75;4928594;29;20110;-83
2023/09/28 06:27:13;;;;;;;9.32;3.75;;;;;;;19.41;100.00;95077.56;4930171;29;20496;-84
2023/09/28 06:29:39;;;;;;;7.30;3.47;;;;;;;18.43;100.00;95074.13;4911490;29;20122;-82
2023/09/28 06:32:04;;;;;;;7.88;3.90;;;;;;;18.77;100.00;95082.53;4929941;29;20513;-83
2023/09/28 06:34:30;;;;;;;9.25;4.00;;;;;;;18.67;100.00;95076.97;4912524;29;20030;-81
2023/09/28 06:36:55;;;;;;;7.68;3.80;;;;;;;18.91;100.00;95084.78;4929662;29;20497;-83
2023/09/28 06:39:20;;;;;;;10.82;3.53;;;;;;;22.81;88.89;95075.66;4897373;29;20227;-83
2023/09/28 06:41:46;;;;;;;11.38;3.40;;;;;;;27.64;58.38;95073.00;4928674;29;20103;-82
2023/09/28 06:44:11;;;;;;;13.93;3.50;;;;;;;26.73;64.17;95068.72;4912887;29;20035;-82
2023/09/28 06:46:37;;;;;;;9.07;3.50;;;;;;;24.44;66.72;95078.00;4929118;29;20016;-82
2023/09/28 06:49:05;;;;;;;8.52;3.33;;;;;;;26.60;62.68;95084.41;4913383;29;20028;-83
2023/09/28 06:51:49;;;;;;;10.80;3.25;;;;;;;24.64;69.99;95085.31;4929061;29;20031;-85
2023/09/28 06:54:16;;;;;;;8.18;3.42;;;;;;;24.73;67.26;95080.31;4911996;29;20055;-82
2023/09/28 06:56:41;;;;;;;9.45;2.92;;;;;;;28.03;53.72;95070.38;4932275;29;20031;-82
2023/09/28 06:59:07;;;;;;;5.15;3.00;;;;;;;30.89;45.47;95083.28;4914867;29;20034;-82
2023/09/28 07:01:33;;;;;;;8.15;3.30;;;;;;;30.47;44.66;95070.91;4916736;29;20032;-79
2023/09/28 07:03:59;;;;;;;7.10;2.53;;;;;;;29.87;45.85;95085.16;4899004;29;20024;-82
2023/09/28 07:06:24;;;;;;;6.65;2.80;;;;;;;30.19;44.26;95080.69;4916527;29;20098;-79
2023/09/28 07:09:08;;;;;;;5.75;3.15;;;;;;;30.13;42.87;95094.41;4932217;29;20115;-81
2023/09/28 07:11:34;;;;;;;8.55;3.10;;;;;;;31.35;42.05;95091.31;4932475;29;20171;-80
2023/09/28 07:13:59;;;;;;;7.45;3.05;;;;;;;31.21;41.76;95087.84;4916147;29;20472;-79
2023/09/28 07:16:43;;;;;;;11.15;2.88;;;;;;;30.15;43.90;95090.34;4914897;29;20035;-82
2023/09/28 07:19:28;;;;;;;9.20;2.90;;;;;;;32.51;40.07;95090.72;4933433;29;20031;-79
2023/09/28 07:22:31;;;;;;;7.47;2.75;;;;;;;32.30;39.36;95093.88;4914919;29;20107;-79
2023/09/28 07:24:56;;;;;;;9.05;3.10;;;;;;;30.82;42.05;95091.72;4914808;29;20024;-82
2023/09/28 07:27:22;;;;;;;9.15;3.03;;;;;;;25.69;58.10;95098.34;4900018;29;20050;-82
2023/09/28 07:29:48;;;;;;;12.43;3.40;;;;;;;23.42;76.18;95096.56;4914467;29;20040;-82
2023/09/28 07:32:14;;;;;;;7.82;3.28;;;;;;;23.00;78.96;95098.91;4916142;29;20095;-84
2023/09/28 07:37:24;;;;;;;14.52;4.85;;;;;;;23.54;76.96;95096.44;4917925;29;20076;-81
2023/09/28 07:40:08;;;;;;;14.20;4.38;;;;;;;23.61;75.21;95087.28;4916017;29;20028;-82
2023/09/28 07:42:34;;;;;;;15.15;3.50;;;;;;;24.19;72.62;95098.97;4931210;29;20110;-84
2023/09/28 07:44:59;;;;;;;13.35;4.03;;;;;;;23.59;76.45;95101.78;4915751;29;20118;-83
2023/09/28 07:47:26;;;;;;;9.25;4.13;;;;;;;23.46;74.48;95102.16;4913846;29;20032;-89
2023/09/28 07:50:11;;;;;;;5.80;3.80;;;;;;;23.04;75.20;95101.88;4915786;29;20464;-81
2023/09/28 07:52:38;;;;;;;8.55;3.70;;;;;;;22.95;78.21;95098.88;4915565;29;20055;-81
2023/09/28 07:58:07;;;;;;;14.82;3.22;;;;;;;23.08;78.16;95098.50;4918171;29;20074;-81
2023/09/28 08:00:33;;;;;;;10.30;3.78;;;;;;;22.84;76.61;95098.94;4914272;29;20043;-81
2023/09/28 08:02:58;;;;;;;12.70;3.70;;;;;;;22.21;79.37;95092.16;4932343;29;20028;-81
2023/09/28 08:08:07;;;;;;;7.30;3.70;;;;;;;22.74;77.55;95098.78;4931435;29;20441;-85
2023/09/28 08:10:33;;;;;;;5.63;3.10;;;;;;;22.57;77.03;95101.44;4915357;29;20043;-84
2023/09/28 08:13:20;;;;;;;9.45;3.17;;;;;;;23.49;74.67;95086.63;4930653;29;20035;-81
2023/09/28 08:15:46;;;;;;;5.28;2.95;;;;;;;23.62;75.32;95088.06;4932398;29;20664;-83
2023/09/28 08:18:11;;;;;;;8.18;3.30;;;;;;;23.92;71.82;95084.94;4931121;29;20234;-83
2023/09/28 08:20:37;;;;;;;6.97;2.78;;;;;;;23.49;71.83;95089.25;4931537;29;20039;-83
2023/09/28 08:23:04;;;;;;;5.43;3.20;;;;;;;23.82;72.83;95087.50;4930716;29;20042;-83
2023/09/28 08:28:14;;;;;;;3.92;2.33;;;;;;;23.25;71.14;95079.94;4917746;29;20090;-81
2023/09/28 08:30:40;;;;;;;8.20;2.67;;;;;;;24.10;68.07;95081.94;4913433;29;20024;-82
2023/09/28 08:33:06;;;;;;;8.10;3.25;;;;;;;24.82;64.01;95074.31;4914875;29;20352;-79
2023/09/28 08:35:31;;;;;;;10.50;2.95;;;;;;;23.40;69.16;95076.72;4897780;29;20035;-82
2023/09/28 08:38:15;;;;;;;5.47;2.97;;;;;;;23.53;69.73;95066.56;4931592;29;20020;-81
2023/09/28 08:41:00;;;;;;;10.75;2.88;;;;;;;22.60;73.57;95072.69;4931509;29;20027;-82
2023/09/28 08:43:30;;;;;;;9.73;3.20;;;;;;;23.83;70.26;95071.34;4930370;29;20031;-81
2023/09/28 08:45:57;;;;;;;11.43;3.25;;;;;;;23.93;66.24;95070.66;4914953;29;20055;-81
2023/09/28 08:48:44;;;;;;;10.07;3.10;;;;;;;23.82;68.01;95061.03;4913496;29;20100;-81
2023/09/28 08:51:10;;;;;;;8.88;3.25;;;;;;;24.00;70.63;95058.00;4913793;29;20133;-81
2023/09/28 08:53:40;;;;;;;11.05;3.47;;;;;;;24.62;67.52;95056.44;4914094;29;20077;-81
2023/09/28 08:56:25;;;;;;;6.20;3.00;;;;;;;24.12;66.88;95053.38;4912862;29;20119;-81
2023/09/28 09:04:19;;;;;;;7.13;2.90;;;;;;;23.18;69.69;95055.56;4930421;29;20031;-82
2023/09/28 09:06:44;;;;;;;13.88;3.13;;;;;;;23.83;69.53;95050.19;4914056;29;20028;-81
2023/09/28 09:09:15;;;;;;;12.45;3.03;;;;;;;23.44;69.32;95057.44;4912276;29;20067;-82
2023/09/28 09:11:59;;;;;;;7.82;3.13;;;;;;;23.58;69.86;95055.22;4914602;29;20470;-83
2023/09/28 09:14:28;;;;;;;6.95;2.80;;;;;;;25.44;63.13;95045.16;4912462;29;20484;-82
2023/09/28 09:16:53;;;;;;;;;;;;;;;25.66;60.82;95047.63;4898603;29;20031;-82
2023/09/28 09:19:19;;;;;;;6.47;2.90;;;;;;;25.07;62.39;95044.50;4913265;29;19922;-81
2023/09/28 09:21:44;;;;;;;6.38;2.70;;;;;;;24.85;65.10;95034.03;4912512;29;20036;-82
2023/09/28 09:24:13;;;;;;;4.65;2.72;;;;;;;24.55;66.09;95041.78;4913856;29;20106;-83
2023/09/28 09:26:47;;;;;;;8.40;3.17;;;;;;;24.96;64.43;95027.75;4896814;29;20135;-83
2023/09/28 09:29:13;;;;;;;8.18;2.97;;;;;;;25.42;61.63;95035.88;4892000;29;20459;-84
2023/09/28 09:31:40;;;;;;;7.57;3.08;;;;;;;25.54;61.07;95037.28;4874699;29;20134;-82
2023/09/28 09:34:25;;;;;;;7.35;3.67;;;;;;;25.21;61.76;95044.81;4892527;29;20044;-82
2023/09/28 09:36:53;;;;;;;10.90;3.42;;;;;;;25.30;61.12;95030.78;4892940;29;20095;-83
2023/09/28 09:39:26;;;;;;;9.55;3.38;;;;;;;25.04;62.26;95040.50;4889849;29;20123;-83
2023/09/28 09:41:52;;;;;;;9.07;2.95;;;;;;;25.86;59.94;95036.25;4891627;29;20141;-82
2023/09/28 09:44:37;;;;;;;5.93;2.65;;;;;;;25.97;60.89;95035.22;4874656;29;20469;-82
2023/09/28 09:47:22;;;;;;;6.75;2.50;;;;;;;26.44;59.08;95041.09;4891510;29;20032;-82
2023/09/28 09:50:07;;;;;;;7.50;3.05;;;;;;;25.24;61.45;95034.47;4891318;29;20029;-83
2023/09/28 09:52:34;;;;;;;7.20;2.65;;;;;;;26.53;57.60;95034.16;4889608;29;20037;-82
2023/09/28 09:54:59;;;;;;;9.50;3.20;;;;;;;25.86;55.60;95036.25;4891414;29;20470;-82
2023/09/28 09:57:47;;;;;;;5.63;2.83;;;;;;;25.42;59.48;95035.88;4889878;29;20032;-81
2023/09/28 10:00:15;;;;;;;11.77;2.80;;;;;;;26.37;57.22;95029.94;4890942;29;20451;-82
2023/09/28 10:02:42;;;;;;;8.95;3.00;;;;;;;25.70;57.12;95027.47;4891314;29;20032;-81
2023/09/28 10:05:09;;;;;;;7.53;2.97;;;;;;;26.29;57.12;95029.69;4890130;29;20043;-85
2023/09/28 10:07:37;;;;;;;9.15;3.10;;;;;;;25.47;59.90;95025.28;4891310;29;20051;-83
2023/09/28 10:10:04;;;;;;;10.30;3.42;;;;;;;24.79;61.56;95034.25;4889850;29;20391;-83
2023/09/28 10:15:14;;;;;;;6.35;2.95;;;;;;;25.18;60.42;95025.72;4890661;29;20047;-85
2023/09/28 10:17:40;;;;;;;6.78;3.58;;;;;;;25.46;60.96;95021.03;4875087;29;20506;-83
2023/09/28 10:20:07;;;;;;;6.13;2.90;;;;;;;25.53;60.81;95018.94;4891247;29;20044;-85
2023/09/28 10:32:33;;;;;;;5.43;2.63;;;;;;;24.96;61.70;95008.38;4932582;29;20108;-85
2023/09/28 10:35:31;;;;;;;10.73;2.92;;;;;;;25.25;61.77;95006.09;4933724;29;20040;-84
2023/09/28 10:38:19;;;;;;;6.70;3.10;;;;;;;24.77;63.84;95002.72;4875341;29;20111;-83
2023/09/28 10:41:05;;;;;;;7.65;3.08;;;;;;;24.35;65.55;95005.38;4915786;29;20083;-85
2023/09/28 10:43:50;;;;;;;7.38;3.40;;;;;;;25.00;65.19;94998.88;4916386;29;20110;-86
2023/09/28 10:46:15;;;;;;;11.02;3.58;;;;;;;24.52;65.03;95011.31;4933472;29;20147;-85
2023/09/28 10:48:45;;;;;;;5.03;2.75;;;;;;;23.92;68.16;95001.03;4915244;29;20110;-85
2023/09/28 10:51:18;;;;;;;8.10;2.72;;;;;;;24.14;67.69;95014.22;4916443;29;20533;-82
2023/09/28 10:53:44;;;;;;;9.43;3.55;;;;;;;23.88;69.75;95012.41;4914937;29;20035;-82
2023/09/28 10:56:11;;;;;;;8.10;3.30;;;;;;;23.98;70.99;95009.84;4916872;29;20036;-82
2023/09/28 10:58:56;;;;;;;5.00;3.00;;;;;;;24.38;69.09;95007.50;4932708;29;20094;-83
2023/09/28 11:01:59;;;;;;;5.57;2.70;;;;;;;24.87;65.84;95012.59;4915616;29;20030;-85
2023/09/28 11:04:25;;;;;;;8.52;3.35;;;;;;;24.95;65.30;95001.47;4916133;29;20028;-82
2023/09/28 11:06:50;;;;;;;4.55;3.20;;;;;;;24.45;67.62;95010.75;4899045;29;20086;-83
2023/09/28 11:12:38;;;;;;;6.35;3.35;;;;;;;24.57;69.38;94998.09;4933743;29;20077;-83
2023/09/28 11:15:05;;;;;;;6.15;3.15;;;;;;;24.68;67.26;94998.97;4898819;29;20063;-84
2023/09/28 11:17:30;;;;;;;6.88;3.60;;;;;;;24.98;66.99;94996.47;4933140;29;20430;-83
2023/09/28 11:20:15;;;;;;;8.15;3.53;;;;;;;24.58;67.04;94994.41;4898747;29;20541;-87
2023/09/28 11:22:40;;;;;;;7.60;3.42;;;;;;;24.37;67.02;95002.47;4915425;29;20020;-85
2023/09/28 11:27:50;;;;;;;12.95;3.80;;;;;;;24.44;68.69;94992.44;4932262;29;20182;-84
2023/09/28 11:39:28;;;;;;;7.85;3.53;;;;;;;24.20;69.27;94992.03;4933157;29;20580;-83
2023/09/28 11:41:58;;;;;;;8.25;3.50;;;;;;;23.66;71.25;94995.78;4914242;29;20513;-83
2023/09/28 11:44:27;;;;;;;5.50;3.13;;;;;;;23.44;72.75;94987.88;4931957;29;20027;-83
2023/09/28 11:46:56;;;;;;;7.18;3.80;;;;;;;23.55;72.85;94987.75;4915798;29;20031;-87
2023/09/28 11:49:22;;;;;;;9.50;3.40;;;;;;;23.52;72.61;94992.75;4914827;29;20046;-83
2023/09/28 11:52:25;;;;;;;6.78;3.22;;;;;;;23.40;72.73;94992.09;4915565;29;20039;-85
2023/09/28 12:00:19;;;;;;;8.57;3.70;;;;;;;23.61;73.27;94991.25;4918107;29;20123;-84
2023/09/28 12:02:46;;;;;;;8.35;3.50;;;;;;;23.53;73.03;94995.16;4913986;29;20564;-84
2023/09/28 12:05:31;;;;;;;5.20;3.60;;;;;;;23.59;72.24;94996.78;4932850;29;20413;-87
2023/09/28 12:07:57;;;;;;;5.47;2.97;;;;;;;23.61;72.99;94994.69;4932436;29;20437;-82
2023/09/28 12:10:23;;;;;;;11.52;3.47;;;;;;;23.48;73.89;94986.34;4915145;29;20473;-83
2023/09/28 12:12:48;;;;;;;9.63;3.25;;;;;;;23.42;72.97;94990.81;4915000;29;20043;-82
2023/09/28 12:15:33;;;;;;;5.15;3.03;;;;;;;23.40;73.97;94992.91;4914013;29;20042;-86
2023/09/28 12:17:58;;;;;;;11.48;3.35;;;;;;;23.41;74.33;94994.47;4915152;29;20116;-82
2023/09/28 12:20:42;;;;;;;12.35;3.35;;;;;;;23.58;74.90;94994.38;4913637;29;20059;-83
2023/09/28 12:23:08;;;;;;;4.50;2.88;;;;;;;23.96;72.14;95001.34;4932104;29;20520;-83
2023/09/28 12:25:34;;;;;;;5.72;3.45;;;;;;;24.15;69.63;94989.34;4914517;29;20047;-82
2023/09/28 12:30:44;;;;;;;6.45;3.30;;;;;;;24.18;71.90;94980.88;4917571;29;20174;-83
2023/09/28 12:33:10;;;;;;;6.97;3.58;;;;;;;23.91;72.46;94980.13;4913450;29;20115;-84
2023/09/28 12:35:38;;;;;;;12.38;3.60;;;;;;;23.49;73.85;94972.09;4915178;29;20086;-89
2023/09/28 12:38:23;;;;;;;8.18;3.40;;;;;;;23.47;73.59;94976.84;4914221;29;20032;-85
2023/09/28 12:40:48;;;;;;;9.63;3.13;;;;;;;23.45;72.70;94989.50;4914161;29;20039;-86
2023/09/28 12:43:13;;;;;;;9.27;3.63;;;;;;;23.61;72.51;94992.03;4931963;29;20082;-85
2023/09/28 12:45:39;;;;;;;7.35;3.20;;;;;;;23.32;74.10;94988.00;4913428;29;20024;-85
2023/09/28 12:48:05;;;;;;;12.80;3.88;;;;;;;23.17;74.95;94987.84;4931638;29;20032;-83
2023/09/28 12:50:50;;;;;;;7.25;3.40;;;;;;;23.20;76.55;94990.00;4930496;29;20031;-88
2023/09/28 12:53:16;;;;;;;8.90;3.40;;;;;;;23.16;75.24;94991.53;4931540;29;20039;-85
2023/09/28 12:56:00;;;;;;;5.18;3.60;;;;;;;23.05;75.86;94984.56;4930795;29;20177;-82
2023/09/28 13:01:28;;;;;;;7.88;3.53;;;;;;;22.75;77.43;94985.00;4931961;29;20039;-86
2023/09/28 13:03:53;;;;;;;8.27;4.03;;;;;;;22.68;77.94;94994.13;4912941;29;20458;-83
2023/09/28 13:06:19;;;;;;;6.90;3.67;;;;;;;22.69;78.77;94990.44;4914158;29;20506;-86
2023/09/28 13:08:45;;;;;;;7.28;3.40;;;;;;;22.50;79.87;94990.72;4913587;29;20091;-88
2023/09/28 13:11:10;;;;;;;8.75;3.13;;;;;;;22.48;80.13;94995.41;4930741;29;20020;-83
2023/09/28 13:13:39;;;;;;;8.32;4.03;;;;;;;22.56;80.57;94995.00;4931622;29;20115;-83
2023/09/28 13:16:05;;;;;;;7.97;3.67;;;;;;;22.46;81.37;94997.50;4897209;29;20091;-83
2023/09/28 13:18:33;;;;;;;7.82;3.33;;;;;;;22.50;81.16;94996.00;4931050;29;20028;-83
2023/09/28 13:20:58;;;;;;;9.80;3.72;;;;;;;22.35;81.93;94994.94;4912996;29;20055;-83
2023/09/28 13:23:24;;;;;;;11.63;4.00;;;;;;;22.39;82.48;95002.16;4914495;29;20765;-83
2023/09/28 13:25:49;;;;;;;7.90;3.67;;;;;;;22.29;82.52;94991.44;4912633;29;20106;-81
2023/09/28 13:28:16;;;;;;;9.63;3.80;;;;;;;22.19;83.67;94991.28;4913668;29;20030;-82
2023/09/28 13:30:42;;;;;;;6.13;3.85;;;;;;;22.28;84.01;95004.91;4931083;29;20056;-84
2023/09/28 13:33:09;;;;;;;14.48;4.13;;;;;;;22.32;83.95;94996.25;4929514;29;20023;-81
2023/09/28 13:35:35;;;;;;;11.77;4.07;;;;;;;22.39;83.44;94994.25;4931347;29;20024;-83
2023/09/28 13:38:02;;;;;;;9.68;4.65;;;;;;;22.27;84.08;95003.28;4929115;29;20111;-88
2023/09/28 13:40:34;;;;;;;8.45;3.72;;;;;;;22.17;83.66;95003.13;4914127;29;20035;-85
2023/09/28 13:43:01;;;;;;;8.68;3.88;;;;;;;22.22;83.72;95004.00;4913654;29;20024;-90
2023/09/28 13:45:27;;;;;;;7.60;4.07;;;;;;;22.37;83.64;95000.81;4913397;29;20422;-87
2023/09/28 13:47:54;;;;;;;8.05;3.95;;;;;;;22.35;83.31;94998.41;4913778;29;20028;-87
2023/09/28 13:50:19;;;;;;;8.70;3.33;;;;;;;22.36;83.16;94997.38;4913115;29;20024;-83
2023/09/28 13:52:45;;;;;;;3.97;3.20;;;;;;;22.29;84.04;94994.09;4913862;29;20030;-90
2023/09/28 13:55:15;;;;;;;11.68;3.80;;;;;;;22.13;83.61;94994.91;4929557;29;20043;-88
2023/09/28 13:57:42;;;;;;;10.32;3.58;;;;;;;22.13;83.78;94989.63;4931185;29;20028;-86
2023/09/28 14:00:14;;;;;;;7.15;3.90;;;;;;;22.19;83.59;94995.78;4912503;29;20031;-89
2023/09/28 14:02:41;;;;;;;5.75;3.20;;;;;;;22.17;83.33;94993.38;4930730;29;20024;-86
2023/09/28 14:05:07;;;;;;;12.15;4.03;;;;;;;22.20;83.34;94994.75;4913061;29;20091;-83
2023/09/28 14:07:33;;;;;;;10.27;4.00;;;;;;;22.21;82.92;94991.88;4912464;29;20016;-85
2023/09/28 14:09:59;;;;;;;5.28;3.35;;;;;;;22.31;83.49;94991.22;4914056;29;20040;-87
2023/09/28 14:12:25;;;;;;;9.43;3.92;;;;;;;22.40;81.87;94985.28;4912223;29;20063;-89
2023/09/28 14:14:51;;;;;;;8.02;3.67;;;;;;;22.63;80.98;94997.47;4913474;29;20595;-85
2023/09/28 14:17:16;;;;;;;7.43;3.22;;;;;;;22.52;80.29;94985.97;4911936;29;20030;-87
2023/09/28 14:19:42;;;;;;;9.70;3.58;;;;;;;22.53;79.69;94986.78;4913680;29;20117;-86
2023/09/28 14:22:07;;;;;;;8.45;3.40;;;;;;;22.65;78.62;94973.44;4929759;29;20052;-85
2023/09/28 14:24:32;;;;;;;7.18;3.47;;;;;;;22.76;78.27;94981.31;4930266;29;20016;-83
2023/09/28 14:26:58;;;;;;;6.95;3.20;;;;;;;22.62;78.07;94989.78;4913307;29;20501;-87
2023/09/28 14:29:24;;;;;;;6.10;2.75;;;;;;;22.39;78.84;94996.88;4912114;29;20043;-83
2023/09/28 14:31:52;;;;;;;6.45;3.13;;;;;;;22.20;79.36;94992.09;4898097;29;20053;-84
2023/09/28 14:34:17;;;;;;;7.22;3.25;;;;;;;22.15;80.15;94998.13;4928764;29;20035;-88
2023/09/28 14:36:43;;;;;;;8.88;3.35;;;;;;;22.09;80.16;94995.66;4913377;29;20034;-86
2023/09/28 14:39:09;;;;;;;14.65;3.30;;;;;;;21.99;80.24;95009.47;4912285;29;20104;-90
2023/09/28 14:41:37;;;;;;;5.72;3.22;;;;;;;21.99;80.88;95006.84;4930445;29;20031;-84
2023/09/28 14:44:03;;;;;;;6.18;3.47;;;;;;;21.85;80.35;94997.59;4912527;29;20036;-90
2023/09/28 14:46:29;;;;;;;7.13;3.33;;;;;;;21.91;80.56;95010.66;4912274;29;20498;-87
2023/09/28 14:48:54;;;;;;;4.30;3.00;;;;;;;21.80;79.92;95010.72;4913387;29;20063;-86
2023/09/28 14:51:20;;;;;;;11.65;3.65;;;;;;;21.75;80.35;95007.97;4911757;29;20098;-86
2023/09/28 14:53:45;;;;;;;9.98;3.20;;;;;;;21.70;80.51;95013.19;4930376;29;20039;-90
2023/09/28 14:56:11;;;;;;;8.23;3.28;;;;;;;21.68;80.68;95016.03;4911783;29;20494;-86
2023/09/28 14:58:36;;;;;;;8.43;3.50;;;;;;;21.66;81.01;95012.84;4897204;29;20024;-88
2023/09/28 15:01:01;;;;;;;9.55;3.45;;;;;;;21.62;81.06;95027.53;4929765;29;20051;-88
2023/09/28 15:03:28;;;;;;;9.95;3.13;;;;;;;21.54;80.80;95023.44;4929542;29;20415;-86
2023/09/28 15:05:53;;;;;;;8.30;3.15;;;;;;;21.48;80.49;95029.66;4913013;29;20405;-87
2023/09/28 15:08:19;;;;;;;6.43;3.00;;;;;;;21.46;81.13;95029.09;4928774;29;20028;-86
2023/09/28 15:10:44;;;;;;;16.05;3.63;;;;;;;21.44;81.22;95033.81;4897650;29;20028;-84
2023/09/28 15:13:10;;;;;;;10.07;2.95;;;;;;;21.40;81.32;95034.50;4928612;29;20028;-87
2023/09/28 15:15:35;;;;;;;9.85;3.00;;;;;;;21.34;81.25;95038.09;4912911;29;20040;-87
2023/09/28 15:18:01;;;;;;;8.93;2.92;;;;;;;21.31;81.49;95031.47;4913304;29;20027;-85
2023/09/28 15:20:27;;;;;;;7.40;2.95;;;;;;;21.22;81.70;95032.06;4916311;29;20026;-87
2023/09/28 15:22:53;;;;;;;10.18;3.05;;;;;;;21.19;81.53;95033.31;4932811;29;20437;-88
2023/09/28 15:25:18;;;;;;;8.98;3.30;;;;;;;21.16;81.81;95038.28;4932610;29;20027;-89
2023/09/28 15:27:44;;;;;;;13.68;3.63;;;;;;;21.10;81.73;95040.00;4916202;29;20115;-84
2023/09/28 15:30:11;;;;;;;9.10;3.70;;;;;;;21.10;82.12;95036.56;4914735;29;20032;-84
2023/09/28 15:32:36;;;;;;;11.73;3.58;;;;;;;21.03;82.52;95042.72;4916099;29;20043;-83
2023/09/28 15:35:02;;;;;;;13.35;3.33;;;;;;;20.98;82.68;95041.84;4914371;29;20524;-82
2023/09/28 15:37:27;;;;;;;14.68;3.38;;;;;;;20.94;82.05;95045.94;4900354;29;20553;-85
2023/09/28 15:39:53;;;;;;;8.52;3.08;;;;;;;20.90;82.03;95045.63;4931910;29;20039;-84
2023/09/28 15:42:20;;;;;;;8.73;2.95;;;;;;;20.84;82.21;95046.53;4915560;29;20043;-87
2023/09/28 15:44:45;;;;;;;10.90;2.95;;;;;;;20.79;82.01;95050.91;4899635;29;20050;-82
2023/09/28 15:47:11;;;;;;;10.25;3.08;;;;;;;20.76;82.07;95049.56;4932058;29;20052;-84
2023/09/28 15:49:37;;;;;;;11.18;2.72;;;;;;;20.67;82.52;95045.66;4915757;29;20477;-87
2023/09/28 15:52:04;;;;;;;11.80;2.70;;;;;;;20.66;82.36;95044.06;4898655;29;20020;-85
2023/09/28 15:54:29;;;;;;;6.85;3.00;;;;;;;20.64;83.34;95050.59;4899761;29;20444;-84
2023/09/28 15:56:55;;;;;;;12.35;3.33;;;;;;;20.44;82.41;95030.69;4931322;29;20023;-82
2023/09/28 15:59:21;;;;;;;7.60;3.30;;;;;;;20.60;81.91;95057.34;4932851;29;20028;-84
2023/09/28 16:01:47;;;;;;;10.25;3.17;;;;;;;20.57;82.68;95052.53;4931981;29;20354;-86
2023/09/28 16:04:13;;;;;;;15.13;3.25;;;;;;;20.50;83.00;95055.28;4899050;29;20576;-84
2023/09/28 16:06:38;;;;;;;13.32;3.33;;;;;;;20.50;83.00;95060.56;4915756;29;20028;-88
2023/09/28 16:09:06;;;;;;;8.18;3.20;;;;;;;20.46;82.98;95064.66;4931058;29;20485;-83
2023/09/28 16:11:32;;;;;;;12.13;3.40;;;;;;;20.43;83.62;95065.94;4900055;29;20481;-84
2023/09/28 16:13:57;;;;;;;7.82;2.72;;;;;;;20.40;83.65;95070.84;4930465;29;20090;-85
2023/09/28 16:16:25;;;;;;;13.48;2.70;;;;;;;20.35;83.77;95065.47;4932717;29;20027;-84
2023/09/28 16:18:50;;;;;;;15.75;2.97;;;;;;;20.33;83.90;95059.63;4914221;29;20029;-84
2023/09/28 16:21:15;;;;;;;7.47;2.90;;;;;;;20.25;84.49;95068.63;4915160;29;20039;-86
2023/09/28 16:23:41;;;;;;;12.05;3.42;;;;;;;20.25;84.53;95063.38;4914531;29;20031;-84